Time,TemperatureF,DewpointF,PressureIn,WindDirection,WindDirectionDegrees,WindSpeedMPH,WindSpeedGustMPH,Humidity,HourlyPrecipIn,Conditions,Clouds,dailyrainin,SoftwareType,DateUTC
2013-05-21 00:01:00,76.3,64.4,29.75,SSE,155,4.7,5.9,67,0.00,,CLR,0.00,VWS V14.01,2013-05-21 04:01:00,
2013-05-21 00:02:00,76.3,64.4,29.75,SSW,194,1.2,8.3,67,0.00,,CLR,0.00,VWS V14.01,2013-05-21 04:02:00,
2013-05-21 00:07:00,76.1,64.6,29.75,SSE,168,4.7,5.9,68,0.00,,CLR,0.00,VWS V14.01,2013-05-21 04:07:00,
2013-05-21 00:12:00,76.1,64.6,29.75,SSE,161,5.9,8.3,68,0.00,,CLR,0.00,VWS V14.01,2013-05-21 04:12:00,
2013-05-21 00:17:00,76.0,64.6,29.75,SSE,160,8.3,9.4,68,0.00,,CLR,0.00,VWS V14.01,2013-05-21 04:17:00,
2013-05-21 00:22:00,76.0,64.6,29.75,South,175,2.4,2.4,68,0.00,,CLR,0.00,VWS V14.01,2013-05-21 04:22:00,
2013-05-21 00:27:00,75.8,64.8,29.75,SSE,167,1.2,5.9,69,0.00,,CLR,0.00,VWS V14.01,2013-05-21 04:27:00,
2013-05-21 00:32:00,75.6,64.6,29.75,SSE,155,4.7,4.7,69,0.00,,CLR,0.00,VWS V14.01,2013-05-21 04:32:00,
2013-05-21 00:37:00,75.6,64.6,29.75,SSE,160,2.4,5.9,69,0.00,,CLR,0.00,VWS V14.01,2013-05-21 04:37:00,
2013-05-21 00:42:00,75.4,64.8,29.74,South,176,1.2,2.4,70,0.00,,CLR,0.00,VWS V14.01,2013-05-21 04:42:00,
2013-05-21 00:47:00,75.4,64.8,29.75,SSE,161,4.7,10.6,70,0.00,,CLR,0.00,VWS V14.01,2013-05-21 04:47:00,
2013-05-21 00:52:00,75.3,64.7,29.75,SSE,156,4.7,7.1,70,0.00,,CLR,0.00,VWS V14.01,2013-05-21 04:52:00,
2013-05-21 00:57:00,75.3,64.7,29.75,South,186,2.4,5.9,70,0.00,,CLR,0.00,VWS V14.01,2013-05-21 04:57:00,
2013-05-21 01:02:00,75.1,64.9,29.76,South,178,7.1,9.4,71,0.00,,CLR,0.00,VWS V14.01,2013-05-21 05:02:00,
2013-05-21 01:07:00,75.1,64.9,29.76,SSE,162,4.7,4.7,71,0.00,,CLR,0.00,VWS V14.01,2013-05-21 05:07:00,
2013-05-21 01:12:00,75.1,65.3,29.76,South,182,3.5,9.4,72,0.00,,CLR,0.00,VWS V14.01,2013-05-21 05:12:00,
2013-05-21 01:17:00,75.1,65.3,29.76,SSE,159,2.4,11.8,72,0.00,,CLR,0.00,VWS V14.01,2013-05-21 05:17:00,
2013-05-21 01:22:00,75.1,65.3,29.75,South,190,9.4,17.7,72,0.00,,CLR,0.00,VWS V14.01,2013-05-21 05:22:00,
2013-05-21 01:27:00,75.1,65.8,29.76,South,173,7.1,14.2,73,0.00,,CLR,0.00,VWS V14.01,2013-05-21 05:27:00,
2013-05-21 01:32:00,75.3,65.9,29.75,SSW,192,9.4,17.7,73,0.00,,CLR,0.00,VWS V14.01,2013-05-21 05:32:00,
2013-05-21 01:37:00,75.3,65.9,29.75,WSW,255,3.5,10.6,73,0.00,,CLR,0.00,VWS V14.01,2013-05-21 05:37:00,
2013-05-21 01:42:00,75.3,65.9,29.75,SSE,149,8.3,14.2,73,0.00,,CLR,0.00,VWS V14.01,2013-05-21 05:42:00,
2013-05-21 01:47:00,75.3,65.9,29.75,SSW,207,5.9,9.4,73,0.00,,CLR,0.00,VWS V14.01,2013-05-21 05:47:00,
2013-05-21 01:52:00,75.3,65.9,29.75,South,176,9.4,9.4,73,0.00,,CLR,0.00,VWS V14.01,2013-05-21 05:52:00,
2013-05-21 01:57:00,75.3,65.9,29.75,South,188,7.1,13.0,73,0.00,,CLR,0.00,VWS V14.01,2013-05-21 05:57:00,
2013-05-21 02:02:00,75.3,65.9,29.75,SE,135,9.4,15.3,73,0.00,,CLR,0.00,VWS V14.01,2013-05-21 06:02:00,
2013-05-21 02:07:00,75.3,66.3,29.74,SSE,151,1.2,7.1,74,0.00,,CLR,0.00,VWS V14.01,2013-05-21 06:07:00,
2013-05-21 02:12:00,75.4,66.4,29.74,South,187,2.4,4.7,74,0.00,,CLR,0.00,VWS V14.01,2013-05-21 06:12:00,
2013-05-21 02:17:00,75.4,66.4,29.73,South,178,5.9,5.9,74,0.00,,CLR,0.00,VWS V14.01,2013-05-21 06:17:00,
2013-05-21 02:22:00,75.4,66.4,29.73,SSE,160,0.0,0.0,74,0.00,,CLR,0.00,VWS V14.01,2013-05-21 06:22:00,
2013-05-21 02:27:00,75.3,66.3,29.73,South,186,4.7,7.1,74,0.00,,CLR,0.00,VWS V14.01,2013-05-21 06:27:00,
2013-05-21 02:32:00,75.4,66.4,29.73,South,188,1.2,3.5,74,0.00,,CLR,0.00,VWS V14.01,2013-05-21 06:32:00,
2013-05-21 02:37:00,75.4,66.4,29.73,SSW,199,10.6,10.6,74,0.00,,CLR,0.00,VWS V14.01,2013-05-21 06:37:00,
2013-05-21 02:42:00,75.4,66.4,29.73,South,173,8.3,8.3,74,0.00,,CLR,0.00,VWS V14.01,2013-05-21 06:42:00,
2013-05-21 02:47:00,75.4,66.4,29.73,South,188,7.1,8.3,74,0.00,,CLR,0.00,VWS V14.01,2013-05-21 06:47:00,
2013-05-21 02:52:00,75.4,66.4,29.74,WNW,294,3.5,4.7,74,0.00,,BKN065,0.00,VWS V14.01,2013-05-21 06:52:00,
2013-05-21 02:57:00,74.7,62.9,29.75,West,271,5.9,9.4,67,0.00,,BKN065,0.00,VWS V14.01,2013-05-21 06:57:00,
2013-05-21 03:02:00,73.9,61.7,29.74,NW,323,4.7,5.9,66,0.00,,BKN065,0.00,VWS V14.01,2013-05-21 07:02:00,
2013-05-21 03:07:00,73.0,61.3,29.73,NNW,329,7.1,9.4,67,0.00,,BKN065,0.00,VWS V14.01,2013-05-21 07:07:00,
2013-05-21 03:12:00,72.1,60.8,29.72,NNW,342,5.9,10.6,68,0.00,,BKN065,0.00,VWS V14.01,2013-05-21 07:12:00,
2013-05-21 03:17:00,71.5,60.7,29.73,North,355,8.3,8.3,69,0.00,,BKN065,0.00,VWS V14.01,2013-05-21 07:17:00,
2013-05-21 03:22:00,70.8,60.4,29.74,NW,313,7.1,8.3,70,0.00,,BKN065,0.00,VWS V14.01,2013-05-21 07:22:00,
2013-05-21 03:27:00,70.3,60.7,29.75,NNW,337,5.9,10.6,72,0.00,,BKN065,0.00,VWS V14.01,2013-05-21 07:27:00,
2013-05-21 03:32:00,69.6,60.8,29.76,WNW,287,9.4,14.2,74,0.00,,BKN065,0.00,VWS V14.01,2013-05-21 07:32:00,
2013-05-21 03:37:00,68.8,61.2,29.77,NW,309,7.1,8.3,77,0.00,,BKN065,0.00,VWS V14.01,2013-05-21 07:37:00,
2013-05-21 03:42:00,68.1,61.3,29.79,NW,320,4.7,8.3,79,0.01,,BKN065,0.01,VWS V14.01,2013-05-21 07:42:00,
2013-05-21 03:47:00,67.3,61.2,29.79,WSW,257,4.7,9.4,81,0.01,,BKN065,0.01,VWS V14.01,2013-05-21 07:47:00,
2013-05-21 03:52:00,66.6,60.9,29.78,SW,229,0.0,0.0,82,0.01,,,0.01,VWS V14.01,2013-05-21 07:52:00,
2013-05-21 03:57:00,66.1,60.7,29.75,North,360,0.0,1.2,83,0.02,,,0.02,VWS V14.01,2013-05-21 07:57:00,
2013-05-21 04:03:00,65.8,60.8,29.76,North,360,0.0,1.2,84,0.03,,,0.03,VWS V14.01,2013-05-21 08:03:00,
2013-05-21 04:08:00,65.5,60.8,29.76,West,273,0.0,0.0,85,0.03,,,0.03,VWS V14.01,2013-05-21 08:08:00,
2013-05-21 04:13:00,65.3,60.6,29.75,West,273,0.0,0.0,85,0.03,,,0.03,VWS V14.01,2013-05-21 08:13:00,
2013-05-21 04:18:00,65.0,60.7,29.75,WSW,239,2.4,2.4,86,0.04,,,0.04,VWS V14.01,2013-05-21 08:18:00,
2013-05-21 04:23:00,65.0,61.0,29.75,SE,141,2.4,4.7,87,0.04,,,0.04,VWS V14.01,2013-05-21 08:23:00,
2013-05-21 04:28:00,64.8,61.1,29.74,ESE,112,2.4,4.7,88,0.05,,,0.05,VWS V14.01,2013-05-21 08:28:00,
2013-05-21 04:33:00,64.8,61.1,29.74,ESE,122,5.9,5.9,88,0.05,,,0.05,VWS V14.01,2013-05-21 08:33:00,
2013-05-21 04:38:00,64.7,61.3,29.74,SE,128,10.6,10.6,89,0.05,,,0.05,VWS V14.01,2013-05-21 08:38:00,
2013-05-21 04:43:00,64.7,61.7,29.74,SSE,153,4.7,5.9,90,0.04,,,0.05,VWS V14.01,2013-05-21 08:43:00,
2013-05-21 04:48:00,64.5,61.5,29.74,SE,139,4.7,8.3,90,0.05,,,0.06,VWS V14.01,2013-05-21 08:48:00,
2013-05-21 04:53:00,64.5,61.8,29.73,East,101,7.1,8.3,91,0.05,,-RA,0.06,VWS V14.01,2013-05-21 08:53:00,
2013-05-21 04:58:00,64.5,61.8,29.72,SE,138,4.7,5.9,91,0.04,,-RA,0.06,VWS V14.01,2013-05-21 08:58:00,
2013-05-21 05:03:00,64.5,62.1,29.72,SE,126,4.7,8.3,92,0.04,,-RA,0.07,VWS V14.01,2013-05-21 09:03:00,
2013-05-21 05:08:00,64.3,61.9,29.72,ESE,102,4.7,5.9,92,0.04,,-RA,0.07,VWS V14.01,2013-05-21 09:08:00,
2013-05-21 05:13:00,64.3,61.9,29.72,SE,140,8.3,8.3,92,0.04,,-RA,0.07,VWS V14.01,2013-05-21 09:13:00,
2013-05-21 05:18:00,64.3,62.2,29.72,SE,131,5.9,8.3,93,0.03,,-RA,0.07,VWS V14.01,2013-05-21 09:18:00,
2013-05-21 05:23:00,64.2,62.1,29.72,SE,136,5.9,7.1,93,0.03,,-RA,0.07,VWS V14.01,2013-05-21 09:23:00,
2013-05-21 05:28:00,64.2,62.1,29.72,SE,142,8.3,8.3,93,0.04,,-RA,0.08,VWS V14.01,2013-05-21 09:28:00,
2013-05-21 05:33:00,64.2,62.4,29.73,SE,146,5.9,5.9,94,0.03,,-RA,0.08,VWS V14.01,2013-05-21 09:33:00,
2013-05-21 05:38:00,64.0,62.2,29.74,SW,215,2.4,8.3,94,0.03,,-RA,0.08,VWS V14.01,2013-05-21 09:38:00,
2013-05-21 05:43:00,64.0,62.2,29.75,SSW,192,3.5,3.5,94,0.03,,OVC110,0.08,VWS V14.01,2013-05-21 09:43:00,
2013-05-21 05:48:00,64.0,62.2,29.76,WSW,242,4.7,8.3,94,0.03,,OVC110,0.09,VWS V14.01,2013-05-21 09:48:00,
2013-05-21 05:53:00,64.0,62.5,29.75,South,180,3.5,8.3,95,0.03,,OVC110,0.09,VWS V14.01,2013-05-21 09:53:00,
2013-05-21 05:59:00,64.0,62.5,29.75,South,180,5.9,10.6,95,0.03,,OVC110,0.09,VWS V14.01,2013-05-21 09:59:00,
2013-05-21 06:04:00,64.0,62.8,29.74,SSE,150,4.7,7.1,96,0.02,,OVC110,0.09,VWS V14.01,2013-05-21 10:04:00,
2013-05-21 06:06:00,64.0,62.8,29.73,SE,135,4.7,5.9,96,0.02,,,0.09,VWS V14.01,2013-05-21 10:06:00,
2013-05-21 06:09:00,64.0,63.1,29.71,ESE,107,1.2,2.4,97,0.02,,OVC110,0.09,VWS V14.01,2013-05-21 10:09:00,
2013-05-21 06:14:00,64.0,63.4,29.71,ESE,120,1.2,4.7,98,0.03,,OVC110,0.10,VWS V14.01,2013-05-21 10:14:00,
2013-05-21 06:20:00,64.0,63.7,29.71,ESE,120,0.0,1.2,99,0.03,,OVC110,0.10,VWS V14.01,2013-05-21 10:20:00,
2013-05-21 06:24:00,63.9,63.6,29.71,ESE,120,0.0,0.0,99,4.07,,OVC110,0.10,VWS V14.01,2013-05-21 10:24:00,
2013-05-21 06:30:00,63.9,63.9,29.72,SSE,162,2.4,4.7,100,0.02,,OVC110,0.10,VWS V14.01,2013-05-21 10:30:00,
2013-05-21 06:35:00,63.9,63.9,29.71,SSE,147,1.2,4.7,100,0.03,,OVC110,0.11,VWS V14.01,2013-05-21 10:35:00,
2013-05-21 06:40:00,63.9,63.9,29.72,South,170,0.0,2.4,100,0.03,,OVC110,0.11,VWS V14.01,2013-05-21 10:40:00,
2013-05-21 06:58:00,63.9,63.9,29.74,South,180,1.2,2.4,100,0.02,,FEW006,0.11,VWS V14.01,2013-05-21 10:58:00,
2013-05-21 07:03:00,63.9,63.9,29.74,South,190,4.7,5.9,100,0.03,,FEW006,0.12,VWS V14.01,2013-05-21 11:03:00,
2013-05-21 07:08:00,64.0,64.0,29.74,SSW,196,8.3,9.4,100,0.03,,FEW006,0.12,VWS V14.01,2013-05-21 11:08:00,
2013-05-21 07:13:00,64.0,64.0,29.74,SSE,159,2.4,4.7,100,0.02,,FEW006,0.12,VWS V14.01,2013-05-21 11:13:00,
2013-05-21 07:20:00,64.0,64.0,29.74,South,190,3.5,10.6,100,0.02,,FEW006,0.12,VWS V14.01,2013-05-21 11:20:00,
2013-05-21 07:25:00,64.2,64.2,29.74,SSW,195,5.9,9.4,100,0.03,,FEW006,0.13,VWS V14.01,2013-05-21 11:25:00,
2013-05-21 07:30:00,64.3,64.3,29.75,South,175,7.1,9.4,100,0.03,,FEW006,0.13,VWS V14.01,2013-05-21 11:30:00,
2013-05-21 07:35:00,64.5,64.5,29.75,South,176,4.7,13.0,100,0.02,,FEW006,0.13,VWS V14.01,2013-05-21 11:35:00,
2013-05-21 07:40:00,64.7,64.7,29.75,South,173,11.8,15.3,100,0.02,,FEW006,0.13,VWS V14.01,2013-05-21 11:40:00,
2013-05-21 07:45:00,64.8,64.8,29.75,SSE,159,5.9,10.6,100,0.02,,FEW006,0.13,VWS V14.01,2013-05-21 11:45:00,
2013-05-21 07:51:00,65.0,65.0,29.75,SSW,200,8.3,11.8,100,0.03,,SCT005,0.14,VWS V14.01,2013-05-21 11:51:00,
2013-05-21 07:56:00,65.2,65.2,29.75,SSE,166,5.9,13.0,100,0.03,,SCT005,0.14,VWS V14.01,2013-05-21 11:56:00,
2013-05-21 08:01:00,65.3,65.3,29.75,SSE,150,7.1,11.8,100,0.02,,SCT005,0.14,VWS V14.01,2013-05-21 12:01:00,
2013-05-21 08:06:00,65.5,65.5,29.75,SSW,205,3.5,11.8,100,0.02,,SCT005,0.14,VWS V14.01,2013-05-21 12:06:00,
2013-05-21 08:11:00,65.5,65.5,29.75,South,173,9.4,16.5,100,0.03,,SCT005,0.15,VWS V14.01,2013-05-21 12:11:00,
2013-05-21 08:16:00,65.3,65.3,29.75,SSW,202,2.4,9.4,100,0.03,,SCT005,0.15,VWS V14.01,2013-05-21 12:16:00,
2013-05-21 08:21:00,65.3,65.3,29.74,SSW,192,4.7,5.9,100,0.03,,SCT005,0.15,VWS V14.01,2013-05-21 12:21:00,
2013-05-21 08:26:00,65.3,65.3,29.74,WSW,248,7.1,11.8,100,0.02,,SCT005,0.15,VWS V14.01,2013-05-21 12:26:00,
2013-05-21 08:31:00,65.3,65.3,29.75,SSW,195,8.3,8.3,100,0.02,,SCT005,0.15,VWS V14.01,2013-05-21 12:31:00,
2013-05-21 08:36:00,65.3,65.3,29.75,SSW,202,2.4,4.7,100,0.02,,SCT005,0.15,VWS V14.01,2013-05-21 12:36:00,
2013-05-21 08:41:00,65.5,65.5,29.74,SSW,212,5.9,8.3,100,0.02,,SCT005,0.15,VWS V14.01,2013-05-21 12:41:00,
2013-05-21 08:46:00,65.8,65.8,29.74,South,184,11.8,11.8,100,0.03,,SCT005,0.16,VWS V14.01,2013-05-21 12:46:00,
2013-05-21 08:51:00,66.3,66.3,29.75,SSW,196,11.8,13.0,100,0.02,,SCT005,0.16,VWS V14.01,2013-05-21 12:51:00,
2013-05-21 08:56:00,66.4,65.5,29.75,SSE,167,5.9,14.2,97,0.02,,SCT005,0.16,VWS V14.01,2013-05-21 12:56:00,
2013-05-21 09:01:00,66.6,64.8,29.75,South,191,9.4,9.4,94,0.02,,CLR,0.16,VWS V14.01,2013-05-21 13:01:00,
2013-05-21 09:06:00,66.6,64.5,29.75,South,187,8.3,9.4,93,0.02,,CLR,0.16,VWS V14.01,2013-05-21 13:06:00,
2013-05-21 09:11:00,66.9,64.5,29.75,SSW,213,9.4,18.9,92,0.02,,CLR,0.16,VWS V14.01,2013-05-21 13:11:00,
2013-05-21 09:16:00,67.1,64.0,29.75,SSW,203,9.4,11.8,90,0.01,,CLR,0.16,VWS V14.01,2013-05-21 13:16:00,
2013-05-21 09:21:00,67.3,63.9,29.75,SSW,200,1.2,14.2,89,0.02,,CLR,0.17,VWS V14.01,2013-05-21 13:21:00,
2013-05-21 09:26:00,67.4,63.7,29.75,SSE,164,4.7,5.9,88,0.02,,CLR,0.17,VWS V14.01,2013-05-21 13:26:00,
2013-05-21 09:31:00,67.9,64.2,29.75,South,175,13.0,15.3,88,0.02,,CLR,0.17,VWS V14.01,2013-05-21 13:31:00,
2013-05-21 09:36:00,68.6,64.5,29.75,South,171,5.9,7.1,87,0.02,,CLR,0.17,VWS V14.01,2013-05-21 13:36:00,
2013-05-21 09:41:00,68.9,63.8,29.75,SSW,204,4.7,8.3,84,0.02,,CLR,0.17,VWS V14.01,2013-05-21 13:41:00,
2013-05-21 09:46:00,69.4,64.0,29.75,South,175,7.1,11.8,83,0.01,,CLR,0.17,VWS V14.01,2013-05-21 13:46:00,
2013-05-21 09:51:00,69.9,63.7,29.76,SW,217,2.4,16.5,81,0.01,,CLR,0.17,VWS V14.01,2013-05-21 13:51:00,
2013-05-21 09:56:00,71.3,63.6,29.76,South,180,18.9,20.1,77,0.01,,CLR,0.17,VWS V14.01,2013-05-21 13:56:00,
2013-05-21 10:01:00,71.8,63.7,29.76,SSW,193,13.0,16.5,76,0.01,,CLR,0.17,VWS V14.01,2013-05-21 14:01:00,
2013-05-21 10:06:00,71.8,63.4,29.75,SSW,195,7.1,10.6,75,0.01,,CLR,0.17,VWS V14.01,2013-05-21 14:06:00,
2013-05-21 10:11:00,71.1,62.3,29.76,SSW,201,4.7,14.2,74,0.01,,CLR,0.17,VWS V14.01,2013-05-21 14:11:00,
2013-05-21 10:16:00,70.8,62.8,29.76,South,186,8.3,18.9,76,0.01,,CLR,0.17,VWS V14.01,2013-05-21 14:16:00,
2013-05-21 10:21:00,70.6,62.6,29.76,SW,221,8.3,10.6,76,0.00,,SCT005,0.17,VWS V14.01,2013-05-21 14:21:00,
2013-05-21 10:26:00,70.8,63.2,29.75,SSW,205,10.6,13.0,77,0.00,,SCT005,0.17,VWS V14.01,2013-05-21 14:26:00,
2013-05-21 10:31:00,71.6,63.2,29.75,SSE,161,8.3,13.0,75,0.00,,CLR,0.17,VWS V14.01,2013-05-21 14:31:00,
2013-05-21 10:36:00,72.1,63.3,29.75,South,189,11.8,16.5,74,0.00,,CLR,0.17,VWS V14.01,2013-05-21 14:36:00,
2013-05-21 10:41:00,71.6,62.8,29.75,SW,214,8.3,15.3,74,0.00,,CLR,0.17,VWS V14.01,2013-05-21 14:41:00,
2013-05-21 10:46:00,71.8,63.4,29.75,SSE,162,5.9,13.0,75,0.00,,CLR,0.17,VWS V14.01,2013-05-21 14:46:00,
2013-05-21 10:51:00,72.1,63.3,29.75,SSW,194,8.3,15.3,74,0.00,,FEW110,0.17,VWS V14.01,2013-05-21 14:51:00,
2013-05-21 10:56:00,73.0,64.9,29.76,South,179,4.7,11.8,76,0.00,,FEW110,0.17,VWS V14.01,2013-05-21 14:56:00,
2013-05-21 11:01:00,73.2,63.5,29.75,SSW,205,7.1,16.5,72,0.00,,FEW110,0.17,VWS V14.01,2013-05-21 15:01:00,
2013-05-21 11:06:00,73.0,62.9,29.75,SSW,213,13.0,22.4,71,0.00,,FEW110,0.17,VWS V14.01,2013-05-21 15:06:00,
2013-05-21 11:11:00,73.0,62.5,29.76,South,183,7.1,15.3,70,0.00,,FEW110,0.17,VWS V14.01,2013-05-21 15:11:00,
2013-05-21 11:16:00,73.5,62.6,29.75,SSW,198,8.3,11.8,69,0.00,,FEW110,0.17,VWS V14.01,2013-05-21 15:16:00,
2013-05-21 11:21:00,73.2,63.1,29.75,South,190,13.0,17.7,71,0.00,,FEW110,0.17,VWS V14.01,2013-05-21 15:21:00,
2013-05-21 11:26:00,73.3,62.4,29.75,SSW,207,16.5,21.2,69,0.00,,FEW110,0.17,VWS V14.01,2013-05-21 15:26:00,
2013-05-21 11:31:00,73.5,62.6,29.75,South,189,18.9,18.9,69,0.00,,FEW110,0.17,VWS V14.01,2013-05-21 15:31:00,
2013-05-21 11:36:00,73.3,62.0,29.74,SSW,207,11.8,23.6,68,0.00,,FEW110,0.17,VWS V14.01,2013-05-21 15:36:00,
2013-05-21 11:41:00,73.5,62.6,29.73,ESE,105,4.7,5.9,69,0.00,,FEW110,0.17,VWS V14.01,2013-05-21 15:41:00,
2013-05-21 11:46:00,73.9,63.0,29.74,SW,220,4.7,5.9,69,0.01,,FEW110,0.18,VWS V14.01,2013-05-21 15:46:00,
2013-05-21 11:51:00,74.6,63.6,29.74,SW,219,14.2,14.2,69,0.01,,SCT080,0.18,VWS V14.01,2013-05-21 15:51:00,
2013-05-21 11:56:00,75.1,63.3,29.74,SSE,167,8.3,13.0,67,0.01,,SCT080,0.18,VWS V14.01,2013-05-21 15:56:00,
2013-05-21 12:01:00,75.8,63.5,29.74,SSW,206,13.0,13.0,66,0.01,,SCT080,0.18,VWS V14.01,2013-05-21 16:01:00,
2013-05-21 12:06:00,76.0,63.7,29.74,SSW,210,8.3,13.0,66,0.01,,SCT080,0.18,VWS V14.01,2013-05-21 16:06:00,
2013-05-21 12:11:00,75.6,63.7,29.74,SSW,205,8.3,13.0,67,0.01,,SCT080,0.18,VWS V14.01,2013-05-21 16:11:00,
2013-05-21 12:16:00,75.3,64.3,29.74,South,183,4.7,10.6,69,0.01,,SCT080,0.18,VWS V14.01,2013-05-21 16:16:00,
2013-05-21 12:21:00,75.3,63.9,29.74,SSW,199,4.7,10.6,68,0.01,,SCT080,0.18,VWS V14.01,2013-05-21 16:21:00,
2013-05-21 12:26:00,75.6,63.3,29.74,SSW,203,20.1,20.1,66,0.01,,SCT080,0.18,VWS V14.01,2013-05-21 16:26:00,
2013-05-21 12:31:00,76.0,62.8,29.74,WSW,240,8.3,9.4,64,0.01,,SCT080,0.18,VWS V14.01,2013-05-21 16:31:00,
2013-05-21 12:36:00,76.3,62.6,29.74,SSE,167,18.9,18.9,63,0.01,,SCT080,0.18,VWS V14.01,2013-05-21 16:36:00,
2013-05-21 12:41:00,76.0,63.2,29.74,South,188,16.5,16.5,65,0.01,,FEW027,0.18,VWS V14.01,2013-05-21 16:41:00,
2013-05-21 12:46:00,76.1,62.9,29.74,South,186,9.4,13.0,64,0.00,,FEW027,0.18,VWS V14.01,2013-05-21 16:46:00,
2013-05-21 12:51:00,76.5,63.3,29.74,South,188,22.4,22.4,64,0.00,,SCT080,0.18,VWS V14.01,2013-05-21 16:51:00,
2013-05-21 12:56:00,76.0,62.8,29.74,SSW,207,18.9,18.9,64,0.00,,SCT080,0.18,VWS V14.01,2013-05-21 16:56:00,
2013-05-21 13:02:00,75.6,63.7,29.74,SW,216,26.0,26.0,67,0.00,,FEW027,0.18,VWS V14.01,2013-05-21 17:02:00,
2013-05-21 13:07:00,74.9,63.1,29.74,WSW,246,4.7,15.3,67,0.00,,FEW027,0.18,VWS V14.01,2013-05-21 17:07:00,
2013-05-21 13:12:00,74.6,63.2,29.75,SW,232,9.4,16.5,68,0.00,,FEW027,0.18,VWS V14.01,2013-05-21 17:12:00,
2013-05-21 13:17:00,74.7,63.7,29.74,South,183,10.6,10.6,69,0.00,,FEW027,0.18,VWS V14.01,2013-05-21 17:17:00,
2013-05-21 13:22:00,75.4,63.5,29.74,South,184,11.8,21.2,67,0.00,,FEW027,0.18,VWS V14.01,2013-05-21 17:22:00,
2013-05-21 13:27:00,76.3,63.5,29.74,South,188,16.5,24.8,65,0.01,,FEW027,0.19,VWS V14.01,2013-05-21 17:27:00,
2013-05-21 13:32:00,76.8,64.4,29.73,SW,221,15.3,20.1,66,0.01,,FEW027,0.19,VWS V14.01,2013-05-21 17:32:00,
2013-05-21 13:37:00,77.2,64.8,29.73,SSW,205,7.1,11.8,66,0.01,,FEW027,0.19,VWS V14.01,2013-05-21 17:37:00,
2013-05-21 13:42:00,77.6,64.3,29.73,South,169,13.0,22.4,64,0.01,,BKN028,0.19,VWS V14.01,2013-05-21 17:42:00,
2013-05-21 13:47:00,78.3,64.5,29.73,SSW,203,14.2,17.7,63,0.01,,BKN028,0.19,VWS V14.01,2013-05-21 17:47:00,
2013-05-21 13:52:00,78.5,63.3,29.73,SSE,155,9.4,22.4,60,0.01,,BKN028,0.19,VWS V14.01,2013-05-21 17:52:00,
2013-05-21 13:57:00,79.2,63.9,29.72,SW,219,4.7,15.3,60,0.01,,BKN028,0.19,VWS V14.01,2013-05-21 17:57:00,
2013-05-21 14:02:00,79.0,64.2,29.72,SSW,199,5.9,13.0,61,0.01,,BKN028,0.19,VWS V14.01,2013-05-21 18:02:00,
2013-05-21 14:07:00,79.2,64.9,29.71,South,176,16.5,16.5,62,0.01,,BKN028,0.19,VWS V14.01,2013-05-21 18:07:00,
2013-05-21 14:12:00,79.8,64.5,29.71,South,190,9.4,9.4,60,0.01,,BKN028,0.19,VWS V14.01,2013-05-21 18:12:00,
2013-05-21 14:17:00,79.6,63.3,29.71,WSW,242,2.4,10.6,58,0.01,,BKN028,0.19,VWS V14.01,2013-05-21 18:17:00,
2013-05-21 14:22:00,79.6,63.8,29.71,South,173,14.2,23.6,59,0.01,,BKN028,0.19,VWS V14.01,2013-05-21 18:22:00,
2013-05-21 14:27:00,80.1,63.3,29.71,SSW,194,21.2,21.2,57,0.00,,BKN028,0.19,VWS V14.01,2013-05-21 18:27:00,
2013-05-21 14:32:00,80.3,62.4,29.72,WSW,241,9.4,9.4,55,0.00,,BKN028,0.19,VWS V14.01,2013-05-21 18:32:00,
2013-05-21 14:37:00,80.7,64.3,29.72,SSW,208,9.4,9.4,58,0.00,,BKN028,0.19,VWS V14.01,2013-05-21 18:37:00,
2013-05-21 14:42:00,81.2,62.7,29.72,WSW,243,2.4,2.4,54,0.00,,BKN028,0.19,VWS V14.01,2013-05-21 18:42:00,
2013-05-21 14:47:00,81.6,62.6,29.73,WSW,251,8.3,9.4,53,0.00,,BKN028,0.19,VWS V14.01,2013-05-21 18:47:00,
2013-05-21 14:52:00,80.9,63.0,29.72,SW,219,9.4,9.4,55,0.00,,BKN038,0.19,VWS V14.01,2013-05-21 18:52:00,
2013-05-21 14:57:00,80.5,62.6,29.72,SSW,198,10.6,17.7,55,0.01,,BKN038,0.20,VWS V14.01,2013-05-21 18:57:00,
2013-05-21 15:02:00,80.3,64.5,29.72,West,270,2.4,2.4,59,0.01,,BKN038,0.20,VWS V14.01,2013-05-21 19:02:00,
2013-05-21 15:07:00,80.7,63.3,29.72,SSE,168,9.4,9.4,56,0.01,,BKN038,0.20,VWS V14.01,2013-05-21 19:07:00,
2013-05-21 15:12:00,80.3,63.0,29.72,South,188,5.9,15.3,56,0.01,,BKN038,0.20,VWS V14.01,2013-05-21 19:12:00,
2013-05-21 15:17:00,80.3,64.0,29.72,WSW,247,4.7,4.7,58,0.01,,BKN038,0.20,VWS V14.01,2013-05-21 19:17:00,
2013-05-21 15:22:00,81.2,63.8,29.72,SW,219,7.1,11.8,56,0.01,,BKN038,0.20,VWS V14.01,2013-05-21 19:22:00,
2013-05-21 15:27:00,80.3,63.5,29.72,SW,224,5.9,11.8,57,0.01,,BKN038,0.20,VWS V14.01,2013-05-21 19:27:00,
2013-05-21 15:32:00,80.3,64.0,29.72,SSW,200,7.1,16.5,58,0.01,,BKN038,0.20,VWS V14.01,2013-05-21 19:32:00,
2013-05-21 15:37:00,81.2,63.8,29.72,SW,227,17.7,20.1,56,0.01,,BKN038,0.20,VWS V14.01,2013-05-21 19:37:00,
2013-05-21 15:42:00,80.9,64.0,29.72,SSW,194,11.8,17.7,57,0.01,,BKN043,0.20,VWS V14.01,2013-05-21 19:42:00,
2013-05-21 15:47:00,81.4,64.0,29.72,SW,226,3.5,7.1,56,0.01,,BKN043,0.20,VWS V14.01,2013-05-21 19:47:00,
2013-05-21 15:53:00,81.6,64.7,29.72,SW,225,10.6,14.2,57,0.01,,BKN043,0.20,VWS V14.01,2013-05-21 19:53:00,
2013-05-21 15:58:00,82.2,64.2,29.72,WSW,246,3.5,5.9,55,0.00,,BKN043,0.20,VWS V14.01,2013-05-21 19:58:00,
2013-05-21 16:03:00,82.4,64.4,29.72,SW,235,7.1,8.3,55,0.01,,BKN043,0.21,VWS V14.01,2013-05-21 20:03:00,
2013-05-21 16:08:00,81.6,64.7,29.72,West,263,9.4,9.4,57,0.01,,BKN043,0.21,VWS V14.01,2013-05-21 20:08:00,
2013-05-21 16:13:00,82.0,65.1,29.72,South,183,7.1,13.0,57,0.01,,BKN043,0.21,VWS V14.01,2013-05-21 20:13:00,
2013-05-21 16:18:00,82.0,64.5,29.72,SW,219,13.0,14.2,56,0.01,,BKN043,0.21,VWS V14.01,2013-05-21 20:18:00,
2013-05-21 16:23:00,82.0,64.0,29.71,West,262,5.9,9.4,55,0.01,,BKN043,0.21,VWS V14.01,2013-05-21 20:23:00,
2013-05-21 16:28:00,82.2,64.2,29.71,NW,311,5.9,17.7,55,0.01,,BKN043,0.21,VWS V14.01,2013-05-21 20:28:00,
2013-05-21 16:33:00,82.8,64.8,29.71,WSW,254,3.5,13.0,55,0.01,,BKN043,0.21,VWS V14.01,2013-05-21 20:33:00,
2013-05-21 16:38:00,82.6,64.0,29.71,SSW,207,5.9,17.7,54,0.01,,BKN043,0.21,VWS V14.01,2013-05-21 20:38:00,
2013-05-21 16:43:00,82.4,64.4,29.70,SW,234,10.6,14.2,55,0.01,,BKN043,0.21,VWS V14.01,2013-05-21 20:43:00,
2013-05-21 16:48:00,82.4,64.4,29.70,WSW,237,4.7,20.1,55,0.01,,BKN043,0.21,VWS V14.01,2013-05-21 20:48:00,
2013-05-21 16:53:00,82.2,64.2,29.70,SW,232,5.9,11.8,55,0.01,,SCT038,0.21,VWS V14.01,2013-05-21 20:53:00,
2013-05-21 16:58:00,82.2,64.2,29.70,SW,219,2.4,17.7,55,0.01,,SCT038,0.21,VWS V14.01,2013-05-21 20:58:00,
2013-05-21 17:03:00,82.2,64.2,29.70,WSW,254,4.7,13.0,55,0.00,,SCT038,0.21,VWS V14.01,2013-05-21 21:03:00,
2013-05-21 17:08:00,82.4,63.8,29.70,SW,223,4.7,9.4,54,0.00,,SCT038,0.21,VWS V14.01,2013-05-21 21:08:00,
2013-05-21 17:13:00,83.0,64.9,29.70,SSW,198,1.2,7.1,55,0.00,,SCT038,0.21,VWS V14.01,2013-05-21 21:13:00,
2013-05-21 17:18:00,83.6,64.4,29.70,SW,231,8.3,8.3,53,0.00,,SCT038,0.21,VWS V14.01,2013-05-21 21:18:00,
2013-05-21 17:23:00,83.6,65.0,29.70,WSW,243,7.1,8.3,54,0.00,,SCT038,0.21,VWS V14.01,2013-05-21 21:23:00,
2013-05-21 17:28:00,83.8,66.2,29.70,SW,229,11.8,13.0,56,0.00,,SCT038,0.21,VWS V14.01,2013-05-21 21:28:00,
2013-05-21 17:33:00,83.4,64.2,29.70,South,190,10.6,24.8,53,0.00,,SCT038,0.21,VWS V14.01,2013-05-21 21:33:00,
2013-05-21 17:38:00,83.0,64.9,29.70,SSW,198,7.1,9.4,55,0.00,,SCT038,0.21,VWS V14.01,2013-05-21 21:38:00,
2013-05-21 17:43:00,83.2,65.1,29.69,SSW,213,2.4,17.7,55,0.00,,SCT038,0.21,VWS V14.01,2013-05-21 21:43:00,
2013-05-21 17:48:00,83.8,65.7,29.70,WSW,253,3.5,8.3,55,0.00,,SCT038,0.21,VWS V14.01,2013-05-21 21:48:00,
2013-05-21 17:53:00,83.6,65.5,29.69,South,188,10.6,22.4,55,0.07,,CLR,0.28,VWS V14.01,2013-05-21 21:53:00,
2013-05-21 17:58:00,82.8,64.8,29.69,SW,221,7.1,17.7,55,0.07,,CLR,0.28,VWS V14.01,2013-05-21 21:58:00,
2013-05-21 18:03:00,82.8,65.3,29.69,SSE,161,16.5,17.7,56,0.07,,CLR,0.28,VWS V14.01,2013-05-21 22:03:00,
2013-05-21 18:08:00,82.4,64.9,29.70,SSW,204,8.3,13.0,56,0.07,,CLR,0.28,VWS V14.01,2013-05-21 22:08:00,
2013-05-21 18:13:00,81.8,63.8,29.70,South,187,15.3,16.5,55,0.07,,CLR,0.28,VWS V14.01,2013-05-21 22:13:00,
2013-05-21 18:18:00,81.2,63.8,29.69,WSW,250,11.8,14.2,56,0.07,,CLR,0.28,VWS V14.01,2013-05-21 22:18:00,
2013-05-21 18:23:00,80.9,64.0,29.69,West,261,9.4,9.4,57,0.07,,CLR,0.28,VWS V14.01,2013-05-21 22:23:00,
2013-05-21 18:28:00,80.9,64.5,29.69,SW,234,0.0,11.8,58,0.07,,CLR,0.28,VWS V14.01,2013-05-21 22:28:00,
2013-05-21 18:33:00,81.4,65.0,29.70,SW,225,7.1,11.8,58,0.07,,CLR,0.28,VWS V14.01,2013-05-21 22:33:00,
2013-05-21 18:38:00,81.6,64.7,29.69,SW,215,10.6,11.8,57,0.07,,CLR,0.28,VWS V14.01,2013-05-21 22:38:00,
2013-05-21 18:43:00,81.6,65.2,29.69,SW,236,2.4,10.6,58,0.07,,FEW044,0.28,VWS V14.01,2013-05-21 22:43:00,
2013-05-21 18:48:00,82.0,65.6,29.69,NW,317,1.2,7.1,58,0.07,,FEW044,0.28,VWS V14.01,2013-05-21 22:48:00,
2013-05-21 18:53:00,82.2,64.7,29.69,West,269,4.7,16.5,56,0.00,,FEW044,0.28,VWS V14.01,2013-05-21 22:53:00,
2013-05-21 18:58:00,81.6,65.2,29.68,West,260,4.7,4.7,58,0.00,,FEW044,0.28,VWS V14.01,2013-05-21 22:58:00,
2013-05-21 19:03:00,81.4,64.5,29.68,SW,218,5.9,5.9,57,0.00,,FEW044,0.28,VWS V14.01,2013-05-21 23:03:00,
2013-05-21 19:08:00,81.6,64.2,29.68,WSW,240,4.7,5.9,56,0.00,,FEW044,0.28,VWS V14.01,2013-05-21 23:08:00,
2013-05-21 19:13:00,81.6,64.7,29.68,WSW,247,4.7,10.6,57,0.00,,FEW044,0.28,VWS V14.01,2013-05-21 23:13:00,
2013-05-21 19:18:00,81.6,64.7,29.68,West,274,2.4,4.7,57,0.00,,FEW044,0.28,VWS V14.01,2013-05-21 23:18:00,
2013-05-21 19:23:00,81.6,64.7,29.68,SW,215,1.2,8.3,57,0.00,,FEW044,0.28,VWS V14.01,2013-05-21 23:23:00,
2013-05-21 19:28:00,81.4,63.5,29.68,SSW,211,8.3,15.3,55,0.00,,FEW044,0.28,VWS V14.01,2013-05-21 23:28:00,
2013-05-21 19:33:00,81.2,64.3,29.67,WSW,239,1.2,4.7,57,0.00,,FEW044,0.28,VWS V14.01,2013-05-21 23:33:00,
2013-05-21 19:38:00,81.1,63.7,29.67,SSW,210,0.0,9.4,56,0.00,,FEW044,0.28,VWS V14.01,2013-05-21 23:38:00,
2013-05-21 19:43:00,80.9,63.5,29.67,West,279,2.4,2.4,56,0.00,,FEW044,0.28,VWS V14.01,2013-05-21 23:43:00,
2013-05-21 19:48:00,80.9,63.5,29.67,SW,236,5.9,7.1,56,0.00,,FEW044,0.28,VWS V14.01,2013-05-21 23:48:00,
2013-05-21 19:53:00,80.9,64.0,29.67,WSW,248,0.0,4.7,57,0.00,,CLR,0.28,VWS V14.01,2013-05-21 23:53:00,
2013-05-21 19:58:00,80.7,63.8,29.67,South,183,4.7,8.3,57,0.00,,CLR,0.28,VWS V14.01,2013-05-21 23:58:00,
2013-05-21 20:03:00,80.5,63.7,29.67,WSW,240,2.4,4.7,57,0.00,,CLR,0.28,VWS V14.01,2013-05-22 00:03:00,
2013-05-21 20:08:00,80.3,64.0,29.67,South,191,1.2,4.7,58,0.00,,CLR,0.28,VWS V14.01,2013-05-22 00:08:00,
2013-05-21 20:13:00,80.3,64.0,29.67,South,179,1.2,4.7,58,0.00,,CLR,0.28,VWS V14.01,2013-05-22 00:13:00,
2013-05-21 20:18:00,80.1,63.8,29.67,SW,214,2.4,4.7,58,0.00,,CLR,0.28,VWS V14.01,2013-05-22 00:18:00,
2013-05-21 20:23:00,80.1,63.8,29.67,SW,215,0.0,0.0,58,0.00,,CLR,0.28,VWS V14.01,2013-05-22 00:23:00,
2013-05-21 20:28:00,79.9,64.1,29.67,NNE,24,0.0,0.0,59,0.00,,CLR,0.28,VWS V14.01,2013-05-22 00:28:00,
2013-05-21 20:33:00,79.8,64.0,29.67,SW,226,0.0,4.7,59,0.00,,CLR,0.28,VWS V14.01,2013-05-22 00:33:00,
2013-05-21 20:38:00,79.8,64.0,29.67,SW,226,0.0,0.0,59,0.00,,CLR,0.28,VWS V14.01,2013-05-22 00:38:00,
2013-05-21 20:43:00,79.6,64.3,29.67,SW,226,0.0,0.0,60,0.00,,CLR,0.28,VWS V14.01,2013-05-22 00:43:00,
2013-05-21 20:48:00,79.4,64.1,29.68,SW,226,0.0,2.4,60,0.00,,CLR,0.28,VWS V14.01,2013-05-22 00:48:00,
2013-05-21 20:53:00,79.2,64.9,29.67,SW,226,0.0,0.0,62,0.00,,CLR,0.28,VWS V14.01,2013-05-22 00:53:00,
2013-05-21 20:58:00,79.0,64.7,29.67,SW,234,0.0,0.0,62,0.00,,CLR,0.28,VWS V14.01,2013-05-22 00:58:00,
2013-05-21 21:03:00,78.6,64.8,29.68,SW,234,0.0,0.0,63,0.00,,CLR,0.28,VWS V14.01,2013-05-22 01:03:00,
2013-05-21 21:08:00,78.5,64.7,29.67,SW,234,0.0,0.0,63,0.00,,CLR,0.28,VWS V14.01,2013-05-22 01:08:00,
2013-05-21 21:13:00,78.1,64.3,29.67,SW,234,0.0,0.0,63,0.00,,CLR,0.28,VWS V14.01,2013-05-22 01:13:00,
2013-05-21 21:18:00,77.7,63.9,29.67,SW,234,0.0,0.0,63,0.00,,CLR,0.28,VWS V14.01,2013-05-22 01:18:00,
2013-05-21 21:23:00,77.4,64.1,29.68,SW,234,0.0,0.0,64,0.00,,CLR,0.28,VWS V14.01,2013-05-22 01:23:00,
2013-05-21 21:28:00,76.8,64.0,29.68,SW,234,0.0,0.0,65,0.00,,CLR,0.28,VWS V14.01,2013-05-22 01:28:00,
2013-05-21 21:33:00,76.5,64.2,29.68,SW,234,0.0,0.0,66,0.00,,CLR,0.28,VWS V14.01,2013-05-22 01:33:00,
2013-05-21 21:38:00,76.0,64.1,29.69,SW,234,0.0,0.0,67,0.00,,CLR,0.28,VWS V14.01,2013-05-22 01:38:00,
2013-05-21 21:43:00,75.6,64.2,29.69,SW,234,0.0,0.0,68,0.00,,CLR,0.28,VWS V14.01,2013-05-22 01:43:00,
2013-05-21 21:48:00,75.3,64.3,29.69,SW,234,0.0,0.0,69,0.00,,CLR,0.28,VWS V14.01,2013-05-22 01:48:00,
2013-05-21 21:53:00,74.9,64.8,29.70,SW,234,0.0,0.0,71,0.00,,CLR,0.28,VWS V14.01,2013-05-22 01:53:00,
2013-05-21 21:58:00,74.6,64.5,29.70,SW,234,0.0,0.0,71,0.00,,CLR,0.28,VWS V14.01,2013-05-22 01:58:00,
2013-05-21 22:03:00,74.0,64.3,29.70,SW,233,0.0,1.2,72,0.00,,CLR,0.28,VWS V14.01,2013-05-22 02:03:00,
2013-05-21 22:08:00,73.7,64.0,29.70,SW,233,0.0,0.0,72,0.00,,CLR,0.28,VWS V14.01,2013-05-22 02:08:00,
2013-05-21 22:13:00,73.3,64.4,29.70,SW,233,0.0,0.0,74,0.00,,CLR,0.28,VWS V14.01,2013-05-22 02:13:00,
2013-05-21 22:18:00,73.0,64.1,29.70,SW,233,0.0,0.0,74,0.00,,CLR,0.28,VWS V14.01,2013-05-22 02:18:00,
2013-05-21 22:23:00,72.8,63.9,29.71,SW,233,0.0,1.2,74,0.00,,CLR,0.28,VWS V14.01,2013-05-22 02:23:00,
2013-05-21 22:28:00,72.5,64.0,29.71,SW,233,0.0,0.0,75,0.00,,CLR,0.28,VWS V14.01,2013-05-22 02:28:00,
2013-05-21 22:33:00,72.3,64.2,29.71,SW,233,0.0,1.2,76,0.00,,CLR,0.28,VWS V14.01,2013-05-22 02:33:00,
2013-05-21 22:38:00,72.1,64.0,29.71,SW,233,1.2,2.4,76,0.00,,CLR,0.28,VWS V14.01,2013-05-22 02:38:00,
2013-05-21 22:43:00,72.0,64.3,29.71,SW,233,0.0,3.5,77,0.00,,CLR,0.28,VWS V14.01,2013-05-22 02:43:00,
2013-05-21 22:48:00,71.8,64.1,29.71,SW,233,0.0,0.0,77,0.00,,CLR,0.28,VWS V14.01,2013-05-22 02:48:00,
2013-05-21 22:53:00,71.8,64.5,29.72,SW,233,0.0,0.0,78,0.00,,CLR,0.28,VWS V14.01,2013-05-22 02:53:00,
2013-05-21 22:58:00,71.8,64.9,29.71,SW,233,0.0,0.0,79,0.00,,CLR,0.28,VWS V14.01,2013-05-22 02:58:00,
2013-05-21 23:03:00,71.6,64.7,29.72,SW,233,0.0,0.0,79,0.00,,CLR,0.28,VWS V14.01,2013-05-22 03:03:00,
2013-05-21 23:08:00,71.6,65.0,29.71,SW,233,0.0,0.0,80,0.00,,CLR,0.28,VWS V14.01,2013-05-22 03:08:00,
2013-05-21 23:13:00,71.5,64.9,29.71,SW,233,0.0,0.0,80,0.00,,CLR,0.28,VWS V14.01,2013-05-22 03:13:00,
2013-05-21 23:18:00,71.5,64.9,29.71,SW,233,0.0,0.0,80,0.00,,CLR,0.28,VWS V14.01,2013-05-22 03:18:00,
2013-05-21 23:23:00,71.3,64.7,29.71,SW,233,0.0,1.2,80,0.00,,CLR,0.28,VWS V14.01,2013-05-22 03:23:00,
2013-05-21 23:28:00,71.1,64.9,29.71,SW,233,0.0,0.0,81,0.00,,CLR,0.28,VWS V14.01,2013-05-22 03:28:00,
2013-05-21 23:33:00,70.9,64.7,29.71,South,182,3.5,3.5,81,0.00,,CLR,0.28,VWS V14.01,2013-05-22 03:33:00,
2013-05-21 23:38:00,70.8,64.6,29.71,South,182,2.4,2.4,81,0.00,,CLR,0.28,VWS V14.01,2013-05-22 03:38:00,
2013-05-21 23:43:00,70.6,64.4,29.71,South,182,0.0,0.0,81,0.00,,CLR,0.28,VWS V14.01,2013-05-22 03:43:00,
2013-05-21 23:48:00,70.4,64.6,29.71,SSE,157,4.7,8.3,82,0.00,,CLR,0.28,VWS V14.01,2013-05-22 03:48:00,
2013-05-21 23:53:00,70.4,64.6,29.71,South,175,4.7,7.1,82,0.00,,FEW055,0.28,VWS V14.01,2013-05-22 03:53:00,
2013-05-21 23:58:00,70.6,64.4,29.71,SSE,167,4.7,4.7,81,0.00,,FEW055,0.28,VWS V14.01,2013-05-22 03:58:00,